Time;durP1;ratioP1;P1;durP2;ratioP2;P2;SDS_P1;SDS_P2;PMS_P1;PMS_P2;Temp;Humidity;BMP_temperature;BMP_pressure;BME280_temperature;BME280_humidity;BME280_pressure;Samples;Min_cycle;Max_cycle;Signal;HPM_P1;HPM_P2
2022/03/28 00:01:51;;;;;;;38.28;14.00;;;5.70;99.90;;;;;;5091304;28;20091;-47
2022/03/28 00:04:17;;;;;;;36.92;14.07;;;5.70;99.90;;;;;;5091403;28;20136;-47
2022/03/28 00:06:43;;;;;;;46.53;14.68;;;5.70;99.90;;;;;;5090975;28;20508;-48
2022/03/28 00:09:09;;;;;;;38.88;15.50;;;5.80;99.90;;;;;;5091042;28;20036;-47
2022/03/28 00:11:34;;;;;;;30.02;12.45;;;5.70;99.90;;;;;;5091097;28;20492;-48
2022/03/28 00:14:00;;;;;;;48.45;16.23;;;6.70;99.90;;;;;;5091122;28;20040;-46
2022/03/28 00:16:26;;;;;;;37.33;15.20;;;5.60;99.90;;;;;;5091019;28;20127;-46
2022/03/28 00:18:52;;;;;;;46.17;15.38;;;6.70;99.90;;;;;;5090870;28;20684;-47
2022/03/28 00:21:18;;;;;;;32.20;14.52;;;5.70;99.90;;;;;;5091260;28;20493;-47
2022/03/28 00:23:44;;;;;;;27.75;14.20;;;5.70;99.90;;;;;;5090984;28;20047;-46
2022/03/28 00:26:09;;;;;;;28.40;14.27;;;5.80;99.90;;;;;;5091327;28;20043;-49
2022/03/28 00:28:35;;;;;;;31.85;14.73;;;5.60;99.90;;;;;;5090559;28;20130;-47
2022/03/28 00:31:01;;;;;;;33.47;14.43;;;5.80;99.90;;;;;;5089808;28;20036;-47
2022/03/28 00:33:27;;;;;;;28.80;13.43;;;6.30;99.90;;;;;;5090369;28;20047;-50
2022/03/28 00:35:52;;;;;;;47.40;15.23;;;5.70;99.90;;;;;;5090210;28;20600;-48
2022/03/28 00:38:18;;;;;;;51.15;14.88;;;5.80;99.90;;;;;;5091062;28;20036;-47
2022/03/28 00:40:44;;;;;;;63.88;14.00;;;5.80;99.90;;;;;;5090380;28;20504;-47
2022/03/28 00:43:10;;;;;;;25.15;13.13;;;5.80;99.90;;;;;;5090845;28;20051;-47
2022/03/28 00:45:40;;;;;;;37.30;13.60;;;6.10;99.90;;;;;;5090304;28;20040;-46
2022/03/28 00:48:07;;;;;;;36.60;13.88;;;5.70;99.90;;;;;;5090245;28;20035;-46
2022/03/28 00:50:34;;;;;;;42.90;14.68;;;5.70;99.90;;;;;;5090132;28;20550;-46
2022/03/28 00:53:00;;;;;;;33.83;15.13;;;5.70;99.90;;;;;;5090113;28;20044;-48
2022/03/28 00:55:26;;;;;;;37.97;15.25;;;5.70;99.90;;;;;;5090343;28;20394;-48
2022/03/28 00:57:53;;;;;;;43.58;16.45;;;5.70;99.90;;;;;;5090300;28;20039;-47
2022/03/28 01:00:19;;;;;;;44.08;17.38;;;5.60;99.90;;;;;;5090133;28;20381;-46
2022/03/28 01:02:46;;;;;;;39.08;15.93;;;5.70;99.90;;;;;;5090336;28;20093;-46
2022/03/28 01:05:12;;;;;;;43.80;16.08;;;5.70;99.90;;;;;;5089722;28;20044;-47
2022/03/28 01:07:41;;;;;;;40.22;15.77;;;5.70;99.90;;;;;;5089867;28;20078;-47
2022/03/28 01:10:10;;;;;;;50.15;17.95;;;5.70;99.90;;;;;;5089221;28;20119;-46
2022/03/28 01:12:37;;;;;;;65.05;18.50;;;5.70;99.90;;;;;;5089390;28;20036;-48
2022/03/28 01:15:04;;;;;;;65.85;19.85;;;5.70;99.90;;;;;;5089880;28;20058;-49
2022/03/28 01:20:15;;;;;;;63.58;20.23;;;5.60;99.90;;;;;;5089853;28;20580;-46
2022/03/28 01:22:41;;;;;;;50.90;19.33;;;5.80;99.90;;;;;;5090207;28;20048;-47
2022/03/28 01:25:08;;;;;;;81.82;21.63;;;5.80;99.90;;;;;;5089824;28;20043;-47
2022/03/28 01:27:37;;;;;;;91.72;22.50;;;5.80;99.90;;;;;;5089891;28;20040;-48
2022/03/28 01:30:07;;;;;;;70.68;20.55;;;5.80;99.90;;;;;;5089641;28;20051;-47
2022/03/28 01:32:33;;;;;;;48.92;19.10;;;5.80;99.90;;;;;;5089942;28;20117;-47
2022/03/28 01:34:58;;;;;;;68.50;22.48;;;5.60;99.90;;;;;;5089067;28;20638;-47
2022/03/28 01:37:24;;;;;;;59.50;21.60;;;5.60;99.90;;;;;;5089552;28;20040;-48
2022/03/28 01:39:50;;;;;;;71.57;24.27;;;5.80;99.90;;;;;;5089064;28;20040;-50
2022/03/28 01:42:15;;;;;;;92.20;23.77;;;5.80;99.90;;;;;;5089550;28;20097;-47
2022/03/28 01:44:41;;;;;;;96.13;19.33;;;5.80;99.90;;;;;;5089523;28;20040;-47
2022/03/28 01:47:08;;;;;;;102.20;19.27;;;5.80;99.90;;;;;;5089425;28;20043;-48
2022/03/28 01:49:33;;;;;;;86.32;17.85;;;5.70;99.90;;;;;;5089973;28;20040;-48
2022/03/28 01:51:59;;;;;;;79.55;19.17;;;5.80;99.90;;;;;;5089414;28;20583;-46
2022/03/28 01:54:25;;;;;;;63.78;18.55;;;5.70;99.90;;;;;;5089144;28;20044;-47
2022/03/28 01:56:51;;;;;;;78.13;23.60;;;5.70;99.90;;;;;;5089568;28;20060;-47
2022/03/28 01:59:17;;;;;;;64.10;22.33;;;5.70;99.90;;;;;;5089097;28;20048;-49
2022/03/28 02:01:43;;;;;;;69.82;23.73;;;5.70;99.90;;;;;;5089217;28;20047;-50
2022/03/28 02:04:08;;;;;;;59.72;21.08;;;5.70;99.90;;;;;;5088497;28;20391;-47
2022/03/28 02:06:34;;;;;;;55.88;23.52;;;5.70;99.90;;;;;;5088806;28;20036;-50
2022/03/28 02:09:01;;;;;;;50.20;19.77;;;5.70;99.90;;;;;;5088355;28;20497;-47
2022/03/28 02:11:28;;;;;;;49.65;21.42;;;5.70;99.90;;;;;;5088885;28;20420;-46
2022/03/28 02:13:54;;;;;;;47.40;20.10;;;5.70;99.90;;;;;;5088730;28;20125;-46
2022/03/28 02:16:20;;;;;;;57.20;22.70;;;5.70;99.90;;;;;;5087828;28;20673;-48
2022/03/28 02:18:46;;;;;;;55.60;22.95;;;5.70;99.90;;;;;;5088999;28;20043;-48
2022/03/28 02:21:12;;;;;;;59.83;21.27;;;5.70;99.90;;;;;;5088441;28;20477;-46
2022/03/28 02:23:37;;;;;;;54.50;22.45;;;5.70;99.90;;;;;;5088654;28;20040;-47
2022/03/28 02:26:03;;;;;;;54.17;21.23;;;5.70;99.90;;;;;;5088913;28;20044;-46
2022/03/28 02:28:29;;;;;;;48.40;21.00;;;5.70;99.90;;;;;;5089020;28;20040;-48
2022/03/28 02:30:55;;;;;;;51.88;22.23;;;5.70;99.90;;;;;;5088339;28;20504;-46
2022/03/28 02:33:22;;;;;;;59.15;23.05;;;5.70;99.90;;;;;;5088036;28;20502;-47
2022/03/28 02:35:47;;;;;;;64.93;24.08;;;5.70;99.90;;;;;;5088751;28;20036;-47
2022/03/28 02:38:13;;;;;;;58.22;22.58;;;5.70;99.90;;;;;;5088573;28;20109;-47
2022/03/28 02:40:39;;;;;;;57.65;22.50;;;5.80;99.90;;;;;;5088660;28;20478;-47
2022/03/28 02:43:05;;;;;;;49.22;22.38;;;5.80;99.90;;;;;;5088347;28;20048;-47
2022/03/28 02:45:36;;;;;;;53.15;22.73;;;5.70;99.90;;;;;;5087378;28;20043;-48
2022/03/28 02:48:04;;;;;;;53.80;23.67;;;5.80;99.90;;;;;;5088252;28;20836;-47
2022/03/28 02:50:31;;;;;;;65.53;23.88;;;6.10;99.90;;;;;;5088721;28;20040;-46
2022/03/28 02:52:57;;;;;;;44.63;19.30;;;5.70;99.90;;;;;;5088701;28;20379;-45
2022/03/28 02:55:23;;;;;;;40.45;18.90;;;5.70;99.90;;;;;;5088517;28;20492;-47
2022/03/28 02:57:49;;;;;;;34.83;16.65;;;5.70;99.90;;;;;;5088677;28;20036;-46
2022/03/28 03:00:15;;;;;;;42.83;19.25;;;5.70;99.90;;;;;;5088008;28;20043;-47
2022/03/28 03:02:42;;;;;;;36.13;17.65;;;5.70;99.90;;;;;;5088777;28;20047;-47
2022/03/28 03:05:09;;;;;;;34.58;16.60;;;6.50;99.90;;;;;;5088300;28;20040;-49
2022/03/28 03:07:35;;;;;;;51.85;21.73;;;6.20;99.90;;;;;;5089018;28;20040;-46
2022/03/28 03:10:02;;;;;;;46.28;20.10;;;5.60;99.90;;;;;;5088308;28;20420;-47
2022/03/28 03:12:27;;;;;;;49.63;19.60;;;6.50;99.90;;;;;;5087692;28;20510;-46
2022/03/28 03:14:53;;;;;;;44.72;18.50;;;5.40;99.90;;;;;;5087882;28;20044;-45
2022/03/28 03:17:20;;;;;;;54.13;22.08;;;5.60;99.90;;;;;;5087504;28;20435;-46
2022/03/28 03:19:45;;;;;;;54.70;21.38;;;5.60;99.90;;;;;;5088750;28;20482;-47
2022/03/28 03:22:14;;;;;;;55.20;23.40;;;5.60;99.90;;;;;;5088266;28;20055;-48
2022/03/28 03:24:40;;;;;;;49.88;20.48;;;5.60;99.90;;;;;;5088801;28;20040;-47
2022/03/28 03:27:06;;;;;;;48.83;20.70;;;5.60;99.90;;;;;;5090208;28;20405;-46
2022/03/28 03:29:33;;;;;;;42.20;20.50;;;5.50;99.90;;;;;;5092586;28;20040;-47
2022/03/28 03:31:58;;;;;;;47.67;20.92;;;6.00;99.90;;;;;;5092473;28;20192;-48
2022/03/28 03:34:24;;;;;;;41.25;19.55;;;5.60;99.90;;;;;;5092135;28;20123;-46
2022/03/28 03:36:50;;;;;;;45.58;20.42;;;5.60;99.90;;;;;;5091365;28;20071;-46
2022/03/28 03:39:16;;;;;;;35.13;19.70;;;5.60;99.90;;;;;;5091122;28;20478;-46
2022/03/28 03:41:42;;;;;;;39.83;20.40;;;5.60;99.90;;;;;;5091278;28;20136;-46
2022/03/28 03:44:09;;;;;;;42.90;21.75;;;5.60;99.90;;;;;;5091330;28;20044;-46
2022/03/28 03:46:35;;;;;;;43.95;21.83;;;6.20;99.90;;;;;;5090767;28;20051;-46
2022/03/28 03:49:01;;;;;;;45.42;21.05;;;5.50;99.90;;;;;;5090551;28;20058;-46
2022/03/28 03:51:26;;;;;;;43.47;21.17;;;5.60;99.90;;;;;;5091283;28;20036;-46
2022/03/28 03:53:52;;;;;;;43.15;21.45;;;5.50;99.90;;;;;;5091688;28;20032;-46
2022/03/28 03:56:18;;;;;;;43.03;20.08;;;6.00;99.90;;;;;;5091514;28;20044;-47
2022/03/28 03:58:44;;;;;;;44.42;21.65;;;5.50;99.90;;;;;;5091476;28;20048;-47
2022/03/28 04:01:09;;;;;;;34.63;18.88;;;5.50;99.90;;;;;;5091475;28;20511;-49
2022/03/28 04:03:36;;;;;;;37.03;19.33;;;5.50;99.90;;;;;;5091764;28;20425;-46
2022/03/28 04:06:02;;;;;;;43.78;20.77;;;5.50;99.90;;;;;;5091610;28;20382;-46
2022/03/28 04:08:28;;;;;;;38.05;20.98;;;5.70;99.90;;;;;;5090595;28;20036;-45
2022/03/28 04:10:55;;;;;;;37.92;19.70;;;7.30;99.90;;;;;;5090925;28;20345;-47
2022/03/28 04:13:21;;;;;;;38.03;19.63;;;5.50;99.90;;;;;;5090494;28;20554;-46
2022/03/28 04:15:47;;;;;;;28.98;15.90;;;5.50;99.90;;;;;;5090387;28;20048;-45
2022/03/28 04:18:12;;;;;;;41.85;17.63;;;5.50;99.90;;;;;;5090437;28;20040;-45
2022/03/28 04:20:39;;;;;;;38.47;19.15;;;5.40;99.90;;;;;;5090039;28;20036;-49
2022/03/28 04:23:05;;;;;;;36.92;19.08;;;5.40;99.90;;;;;;5090418;28;20072;-46
2022/03/28 04:25:31;;;;;;;41.17;19.70;;;5.60;99.90;;;;;;5090179;28;20106;-45
2022/03/28 04:27:57;;;;;;;41.55;19.42;;;5.20;99.90;;;;;;5090541;28;20044;-46
2022/03/28 04:30:23;;;;;;;37.28;17.92;;;5.40;99.90;;;;;;5090211;28;20489;-45
2022/03/28 04:32:49;;;;;;;45.83;19.70;;;5.40;99.90;;;;;;5090529;28;20097;-49
2022/03/28 04:35:15;;;;;;;41.38;20.70;;;5.40;99.90;;;;;;5072666;28;20044;-47
2022/03/28 04:37:42;;;;;;;38.67;21.05;;;5.40;99.90;;;;;;5090662;28;20048;-45
2022/03/28 04:40:11;;;;;;;42.53;20.50;;;5.40;99.90;;;;;;5090634;28;20068;-49
2022/03/28 04:42:37;;;;;;;48.45;21.08;;;5.40;99.90;;;;;;5090586;28;20040;-46
2022/03/28 04:45:05;;;;;;;48.65;22.30;;;5.30;99.90;;;;;;5091145;28;20085;-46
2022/03/28 04:47:31;;;;;;;53.22;23.05;;;5.40;99.90;;;;;;5090568;28;20048;-48
2022/03/28 04:49:57;;;;;;;60.20;25.63;;;5.50;99.90;;;;;;5072415;28;20105;-47
2022/03/28 04:52:23;;;;;;;51.33;23.00;;;5.40;99.90;;;;;;5090286;28;20486;-46
2022/03/28 04:54:49;;;;;;;50.00;19.88;;;5.50;99.90;;;;;;5090751;28;20047;-48
2022/03/28 04:57:15;;;;;;;44.92;17.75;;;5.50;99.90;;;;;;5090723;28;20047;-46
2022/03/28 04:59:40;;;;;;;38.00;17.63;;;5.50;99.90;;;;;;5090210;28;20056;-47
2022/03/28 05:02:06;;;;;;;46.58;19.50;;;5.50;99.90;;;;;;5090466;28;20466;-47
2022/03/28 05:04:32;;;;;;;45.40;19.25;;;5.40;99.90;;;;;;5090731;28;20047;-46
2022/03/28 05:06:59;;;;;;;43.08;18.48;;;5.50;99.90;;;;;;5090376;28;20047;-45
2022/03/28 05:09:24;;;;;;;47.55;18.70;;;5.40;99.90;;;;;;5090513;28;20031;-47
2022/03/28 05:11:50;;;;;;;35.28;16.80;;;5.50;99.90;;;;;;5090429;28;20500;-46
2022/03/28 05:14:18;;;;;;;37.08;15.10;;;5.40;99.90;;;;;;5090346;28;20043;-47
2022/03/28 05:16:44;;;;;;;37.30;14.82;;;5.40;99.90;;;;;;5089905;28;20572;-47
2022/03/28 05:19:10;;;;;;;46.13;17.65;;;5.40;99.90;;;;;;5089918;28;20497;-46
2022/03/28 05:21:36;;;;;;;41.60;16.60;;;5.40;99.90;;;;;;5090067;28;20040;-46
2022/03/28 05:24:01;;;;;;;47.88;15.43;;;5.30;99.90;;;;;;5090075;28;20441;-48
2022/03/28 05:26:27;;;;;;;45.17;16.10;;;5.40;99.90;;;;;;5089762;28;20050;-46
2022/03/28 05:28:53;;;;;;;41.47;15.32;;;5.30;99.90;;;;;;5071926;28;20481;-46
2022/03/28 05:31:19;;;;;;;34.75;14.65;;;5.30;99.90;;;;;;5089866;28;20485;-50
2022/03/28 05:33:44;;;;;;;35.53;13.23;;;5.30;99.90;;;;;;5089863;28;20136;-46
2022/03/28 05:36:10;;;;;;;33.75;14.13;;;5.20;99.90;;;;;;5089072;28;20544;-47
2022/03/28 05:38:36;;;;;;;40.83;14.45;;;5.00;99.90;;;;;;5089050;28;20035;-47
2022/03/28 05:41:05;;;;;;;33.58;12.05;;;5.30;99.90;;;;;;5088923;28;20062;-45
2022/03/28 05:43:36;;;;;;;42.70;12.55;;;5.20;99.90;;;;;;5088727;28;20036;-47
2022/03/28 05:46:03;;;;;;;28.60;11.57;;;5.20;99.90;;;;;;5089780;28;20063;-46
2022/03/28 05:48:29;;;;;;;29.02;12.15;;;5.20;99.90;;;;;;5089247;28;20133;-46
2022/03/28 05:50:55;;;;;;;35.72;12.88;;;5.20;99.90;;;;;;5089335;28;20050;-47
2022/03/28 05:53:21;;;;;;;45.15;14.48;;;5.30;99.90;;;;;;5089551;28;20046;-48
2022/03/28 05:55:47;;;;;;;33.60;11.23;;;5.20;99.90;;;;;;5089229;28;20776;-47
2022/03/28 05:58:13;;;;;;;26.08;10.70;;;5.30;99.90;;;;;;5089295;28;20046;-47
2022/03/28 06:00:39;;;;;;;23.58;9.90;;;5.20;99.90;;;;;;5089499;28;20040;-47
2022/03/28 06:03:05;;;;;;;23.02;9.23;;;5.20;99.90;;;;;;5089308;28;20105;-45
2022/03/28 06:05:31;;;;;;;22.92;8.73;;;5.20;99.90;;;;;;5089217;28;20044;-47
2022/03/28 06:07:58;;;;;;;24.60;8.45;;;5.10;99.90;;;;;;5089363;28;20131;-46
2022/03/28 06:10:24;;;;;;;15.32;6.45;;;5.20;99.90;;;;;;5088774;28;20535;-46
2022/03/28 06:12:50;;;;;;;15.00;5.10;;;6.00;99.90;;;;;;5088979;28;20035;-47
2022/03/28 06:15:17;;;;;;;9.05;3.75;;;5.20;99.90;;;;;;5070627;28;20093;-50
2022/03/28 06:17:43;;;;;;;10.35;4.30;;;5.20;99.90;;;;;;5088817;28;20036;-47
2022/03/28 06:20:12;;;;;;;8.88;3.25;;;5.20;99.90;;;;;;5089049;28;20113;-48
2022/03/28 06:22:38;;;;;;;10.15;3.55;;;5.20;99.90;;;;;;5088810;28;20040;-47
2022/03/28 06:25:05;;;;;;;9.13;3.25;;;5.20;99.90;;;;;;5088941;28;20036;-47
2022/03/28 06:27:31;;;;;;;11.65;3.30;;;5.30;99.90;;;;;;5089011;28;20040;-47
2022/03/28 06:29:57;;;;;;;6.80;2.50;;;5.30;99.90;;;;;;5088684;28;20470;-47
2022/03/28 06:32:23;;;;;;;7.35;2.80;;;5.30;99.90;;;;;;5088989;28;20059;-47
2022/03/28 06:34:52;;;;;;;8.55;3.17;;;5.20;99.90;;;;;;5088525;28;20382;-47
2022/03/28 06:37:21;;;;;;;7.45;2.83;;;5.30;99.90;;;;;;5088465;28;20378;-48
2022/03/28 06:39:47;;;;;;;7.20;3.28;;;6.10;99.90;;;;;;5070509;28;20501;-46
2022/03/28 06:42:13;;;;;;;8.25;3.35;;;5.30;99.90;;;;;;5089027;28;20040;-47
2022/03/28 06:44:39;;;;;;;8.77;3.65;;;5.40;99.90;;;;;;5088620;28;20059;-47
2022/03/28 06:47:04;;;;;;;7.65;3.67;;;5.40;99.90;;;;;;5088909;28;20035;-47
2022/03/28 06:49:32;;;;;;;8.82;3.92;;;5.50;99.90;;;;;;5088674;28;20325;-45
2022/03/28 06:51:58;;;;;;;9.13;3.83;;;5.50;99.90;;;;;;5088256;28;20048;-48
2022/03/28 06:54:23;;;;;;;8.05;3.83;;;5.50;99.90;;;;;;5088745;28;20032;-49
2022/03/28 06:56:49;;;;;;;10.90;5.10;;;5.50;99.90;;;;;;5088327;28;20047;-50
2022/03/28 06:59:15;;;;;;;12.77;6.07;;;5.40;99.90;;;;;;5088241;28;20387;-48
2022/03/28 07:01:43;;;;;;;12.80;5.25;;;5.50;99.90;;;;;;5089486;28;20116;-46
2022/03/28 07:04:12;;;;;;;15.43;7.20;;;5.50;99.90;;;;;;5092502;28;20082;-47
2022/03/28 07:06:38;;;;;;;11.80;6.35;;;5.50;99.90;;;;;;5092660;28;20048;-46
2022/03/28 07:09:04;;;;;;;10.57;5.72;;;5.50;99.90;;;;;;5091534;28;20457;-45
2022/03/28 07:11:32;;;;;;;9.40;4.75;;;5.60;99.90;;;;;;5092687;28;20036;-46
2022/03/28 07:13:57;;;;;;;8.80;5.22;;;5.60;99.90;;;;;;5092205;28;20059;-46
2022/03/28 07:16:23;;;;;;;10.88;5.25;;;5.60;99.90;;;;;;5091564;28;20385;-46
2022/03/28 07:18:49;;;;;;;9.63;5.63;;;6.70;99.90;;;;;;5091186;28;20079;-45
2022/03/28 07:21:14;;;;;;;9.93;5.47;;;5.70;99.90;;;;;;5092069;28;20051;-47
2022/03/28 07:23:40;;;;;;;10.32;6.15;;;6.20;99.90;;;;;;5092057;28;20093;-49
2022/03/28 07:26:07;;;;;;;8.43;4.38;;;5.90;99.90;;;;;;5091827;28;20394;-46
2022/03/28 07:28:34;;;;;;;9.82;5.05;;;6.90;99.90;;;;;;5092011;28;20051;-47
2022/03/28 07:31:01;;;;;;;10.90;5.68;;;6.00;99.90;;;;;;5091712;28;20075;-46
2022/03/28 07:33:26;;;;;;;9.32;5.90;;;6.00;99.90;;;;;;5091353;28;20516;-47
2022/03/28 07:35:52;;;;;;;10.52;5.82;;;6.10;99.90;;;;;;5091480;28;20036;-47
2022/03/28 07:38:19;;;;;;;10.98;6.82;;;6.10;99.90;;;;;;5091677;28;20032;-48
2022/03/28 07:40:45;;;;;;;8.52;5.22;;;6.90;99.90;;;;;;5091721;28;20040;-47
2022/03/28 07:43:12;;;;;;;9.25;6.20;;;6.00;99.90;;;;;;5091083;28;20397;-45
2022/03/28 07:45:37;;;;;;;12.63;6.68;;;6.20;99.90;;;;;;5090320;28;20489;-47
2022/03/28 07:48:06;;;;;;;11.65;6.97;;;6.80;99.90;;;;;;5090283;28;20089;-45
2022/03/28 07:50:32;;;;;;;10.35;6.22;;;6.20;99.90;;;;;;5090674;28;20036;-46
2022/03/28 07:52:58;;;;;;;11.15;5.90;;;6.30;99.90;;;;;;5090584;28;20040;-47
2022/03/28 07:55:26;;;;;;;11.45;6.28;;;6.30;99.90;;;;;;5091295;28;20052;-47
2022/03/28 07:57:51;;;;;;;13.30;6.45;;;6.10;99.90;;;;;;5090893;28;20044;-46
2022/03/28 08:00:17;;;;;;;8.52;4.80;;;6.40;99.90;;;;;;5090700;28;20062;-47
2022/03/28 08:02:43;;;;;;;10.38;6.10;;;6.40;99.90;;;;;;5091202;28;20048;-46
2022/03/28 08:05:10;;;;;;;9.23;5.40;;;6.50;99.90;;;;;;5091396;28;20044;-46
2022/03/28 08:07:36;;;;;;;7.78;4.68;;;6.60;99.90;;;;;;5091776;28;20075;-47
2022/03/28 08:10:05;;;;;;;6.85;4.68;;;6.50;99.90;;;;;;5091419;28;20098;-46
2022/03/28 08:12:31;;;;;;;8.68;4.93;;;6.60;99.90;;;;;;5090920;28;20048;-46
2022/03/28 08:14:57;;;;;;;9.77;5.55;;;6.60;99.90;;;;;;5090695;28;20075;-46
2022/03/28 08:17:23;;;;;;;9.80;5.90;;;6.70;99.90;;;;;;5091270;28;20421;-48
2022/03/28 08:19:49;;;;;;;10.23;5.65;;;6.80;99.90;;;;;;5089694;28;20066;-47
2022/03/28 08:22:17;;;;;;;9.82;6.38;;;6.90;99.90;;;;;;5072116;28;20043;-48
2022/03/28 08:24:44;;;;;;;12.43;6.70;;;7.00;99.90;;;;;;5086538;28;20474;-48
2022/03/28 08:27:10;;;;;;;10.27;6.22;;;7.00;99.90;;;;;;5087099;28;20044;-51
2022/03/28 08:29:36;;;;;;;9.55;6.20;;;7.00;99.90;;;;;;5090643;28;20466;-44
2022/03/28 08:32:02;;;;;;;10.40;6.57;;;7.10;99.90;;;;;;5093096;28;20040;-43
2022/03/28 08:34:29;;;;;;;13.60;7.35;;;7.10;99.90;;;;;;5093018;28;20044;-43
2022/03/28 08:36:55;;;;;;;11.52;7.03;;;7.20;99.90;;;;;;5092822;28;20478;-42
2022/03/28 08:39:21;;;;;;;12.00;6.72;;;7.20;99.90;;;;;;5090847;28;20036;-44
2022/03/28 08:41:48;;;;;;;11.85;6.90;;;7.20;99.90;;;;;;5091302;28;20067;-42
2022/03/28 08:44:15;;;;;;;12.50;7.50;;;7.40;99.90;;;;;;5090703;28;20527;-43
2022/03/28 08:46:43;;;;;;;13.52;7.82;;;7.90;99.90;;;;;;5091054;28;20052;-41
2022/03/28 08:49:09;;;;;;;14.27;8.35;;;8.10;99.90;;;;;;5092492;28;20123;-42
2022/03/28 08:51:35;;;;;;;14.43;8.25;;;7.40;99.90;;;;;;5092109;28;20043;-42
2022/03/28 08:54:02;;;;;;;13.15;7.80;;;7.40;99.90;;;;;;5072927;28;20040;-42
2022/03/28 08:56:27;;;;;;;15.52;7.55;;;7.40;99.90;;;;;;5090505;28;20087;-47
2022/03/28 08:58:53;;;;;;;14.18;7.57;;;7.30;99.90;;;;;;5089842;28;20095;-47
2022/03/28 09:01:23;;;;;;;13.05;7.82;;;7.80;99.90;;;;;;5090079;28;20097;-47
2022/03/28 09:03:49;;;;;;;15.15;7.70;;;7.40;99.90;;;;;;5090106;28;20422;-44
2022/03/28 09:06:42;;;;;;;13.30;7.97;;;6.50;99.90;;;;;;5090040;28;20040;-47
2022/03/28 09:09:27;;;;;;;13.65;7.68;;;7.40;99.90;;;;;;5089627;28;20383;-50
2022/03/28 09:12:06;;;;;;;13.80;8.43;;;7.40;99.90;;;;;;5090050;28;20119;-52
2022/03/28 09:14:37;;;;;;;16.00;8.35;;;7.50;99.90;;;;;;5090490;28;20036;-45
2022/03/28 09:17:15;;;;;;;12.40;8.05;;;7.40;99.90;;;;;;5089880;28;20040;-44
2022/03/28 09:19:46;;;;;;;14.45;7.97;;;7.50;99.90;;;;;;5090032;28;20268;-44
2022/03/28 09:22:19;;;;;;;15.60;9.77;;;7.90;99.90;;;;;;5089374;28;20051;-52
2022/03/28 09:24:45;;;;;;;13.48;8.60;;;8.10;99.90;;;;;;5089275;28;20258;-53
2022/03/28 09:27:20;;;;;;;16.08;9.73;;;8.70;99.90;;;;;;5089588;28;20040;-47
2022/03/28 09:30:07;;;;;;;15.57;9.27;;;7.80;99.90;;;;;;5089649;28;20063;-51
2022/03/28 09:32:36;;;;;;;14.00;8.35;;;7.80;99.90;;;;;;5089757;28;20044;-52
2022/03/28 09:35:11;;;;;;;16.05;9.55;;;7.80;99.90;;;;;;5089328;28;20040;-51
2022/03/28 09:38:02;;;;;;;13.27;8.50;;;7.90;99.90;;;;;;5089428;28;20055;-52
2022/03/28 09:40:33;;;;;;;15.65;8.55;;;8.00;99.90;;;;;;5070433;28;20071;-49
2022/03/28 09:43:01;;;;;;;13.52;7.95;;;8.10;99.90;;;;;;5088592;28;20043;-53
2022/03/28 09:45:39;;;;;;;16.33;8.52;;;8.10;99.90;;;;;;5088509;28;20051;-46
2022/03/28 09:48:08;;;;;;;12.35;7.85;;;8.80;99.90;;;;;;5088380;28;20371;-45
2022/03/28 09:50:41;;;;;;;13.77;8.35;;;8.10;99.90;;;;;;5088802;28;20054;-46
2022/03/28 09:53:12;;;;;;;12.60;8.13;;;8.20;99.90;;;;;;5088076;28;20487;-45
2022/03/28 09:55:46;;;;;;;13.27;7.55;;;8.30;99.90;;;;;;5088266;28;20485;-45
2022/03/28 09:58:36;;;;;;;12.88;7.53;;;8.50;99.90;;;;;;5087869;28;20044;-45
2022/03/28 10:01:06;;;;;;;11.73;6.70;;;8.70;99.90;;;;;;5088840;28;20040;-45
2022/03/28 10:03:35;;;;;;;11.68;6.45;;;9.30;99.90;;;;;;5089063;28;20364;-48
2022/03/28 10:06:01;;;;;;;11.68;7.38;;;9.00;99.90;;;;;;5088543;28;20119;-48
2022/03/28 10:08:28;;;;;;;12.07;7.10;;;9.10;99.90;;;;;;5088568;28;20043;-47
2022/03/28 10:10:55;;;;;;;11.23;6.57;;;9.30;99.90;;;;;;5088918;28;20044;-49
2022/03/28 10:13:22;;;;;;;9.75;6.35;;;10.20;99.90;;;;;;5088564;28;20457;-48
2022/03/28 10:15:49;;;;;;;12.77;7.70;;;9.60;99.90;;;;;;5088586;28;20059;-51
2022/03/28 10:18:14;;;;;;;11.30;7.15;;;9.90;99.90;;;;;;5088210;28;20036;-47
2022/03/28 10:20:46;;;;;;;10.93;7.32;;;10.10;99.90;;;;;;5088871;28;20105;-48
2022/03/28 10:23:17;;;;;;;9.05;6.05;;;10.20;99.90;;;;;;5088111;28;20363;-52
2022/03/28 10:25:44;;;;;;;8.55;6.15;;;10.30;99.90;;;;;;5088617;28;20048;-49
2022/03/28 10:28:10;;;;;;;9.32;6.53;;;10.20;99.90;;;;;;5088406;28;20054;-49
2022/03/28 10:30:36;;;;;;;10.32;6.22;;;10.20;99.90;;;;;;5088213;28;20048;-49
2022/03/28 10:33:16;;;;;;;10.68;6.47;;;10.30;99.90;;;;;;5088151;28;20043;-45
2022/03/28 10:35:59;;;;;;;10.63;6.50;;;10.40;99.90;;;;;;5088374;28;20432;-46
2022/03/28 10:38:26;;;;;;;10.25;6.40;;;10.30;99.90;;;;;;5092472;28;20032;-46
2022/03/28 10:41:16;;;;;;;10.35;6.57;;;10.60;99.90;;;;;;5092844;28;20047;-46
2022/03/28 10:43:41;;;;;;;9.75;6.75;;;10.70;99.90;;;;;;5092893;28;20068;-45
2022/03/28 10:46:09;;;;;;;9.80;6.07;;;10.80;99.90;;;;;;5092836;28;20132;-46
2022/03/28 10:48:46;;;;;;;11.07;7.20;;;10.80;99.90;;;;;;5093017;28;20044;-52
2022/03/28 10:51:19;;;;;;;10.63;7.30;;;11.20;99.90;;;;;;5092756;28;20051;-46
2022/03/28 10:53:51;;;;;;;10.57;6.35;;;11.10;99.90;;;;;;5092250;28;20040;-46
2022/03/28 10:56:18;;;;;;;10.50;7.50;;;11.40;99.90;;;;;;5092071;28;20059;-46
2022/03/28 10:58:55;;;;;;;11.40;6.55;;;11.40;99.90;;;;;;5091941;28;20444;-48
2022/03/28 11:01:28;;;;;;;11.38;7.25;;;11.60;99.90;;;;;;5092317;28;20055;-49
2022/03/28 11:04:00;;;;;;;12.85;7.15;;;11.60;99.90;;;;;;5091859;28;20483;-45
2022/03/28 11:06:47;;;;;;;10.50;6.63;;;11.70;99.90;;;;;;5092064;28;20079;-47
2022/03/28 11:09:13;;;;;;;8.50;6.32;;;12.10;99.90;;;;;;5092377;28;20051;-46
2022/03/28 11:11:59;;;;;;;10.45;7.22;;;11.70;99.90;;;;;;5092606;28;20119;-46
2022/03/28 11:14:39;;;;;;;11.25;7.15;;;11.80;99.90;;;;;;5091772;28;20138;-46
2022/03/28 11:17:20;;;;;;;11.20;6.65;;;12.30;99.90;;;;;;5091850;28;20040;-50
2022/03/28 11:20:09;;;;;;;8.60;6.45;;;12.10;99.90;;;;;;5091883;28;20043;-51
2022/03/28 11:22:44;;;;;;;8.55;6.80;;;12.20;99.90;;;;;;5091809;28;20138;-51
2022/03/28 11:25:31;;;;;;;9.93;7.00;;;12.30;99.90;;;;;;5092068;28;20052;-42
2022/03/28 11:28:22;;;;;;;9.10;6.03;;;12.40;99.90;;;;;;5092977;28;20593;-45
2022/03/28 11:31:06;;;;;;;8.90;7.00;;;12.40;99.90;;;;;;5091981;28;20545;-54
2022/03/28 11:33:33;;;;;;;8.52;6.63;;;12.40;99.90;;;;;;5091544;28;20048;-50
2022/03/28 11:36:04;;;;;;;11.70;7.68;;;12.50;99.90;;;;;;5091522;28;20606;-49
2022/03/28 11:39:03;;;;;;;9.80;7.50;;;12.50;99.90;;;;;;5091537;28;20043;-47
2022/03/28 11:41:30;;;;;;;10.43;7.57;;;12.60;99.20;;;;;;5091569;28;20048;-47
2022/03/28 11:43:57;;;;;;;10.30;6.97;;;12.70;99.90;;;;;;5091238;28;20044;-48
2022/03/28 11:46:26;;;;;;;10.82;6.85;;;12.90;99.70;;;;;;5090945;28;20701;-46
2022/03/28 11:48:59;;;;;;;10.85;6.63;;;13.30;98.70;;;;;;5091195;28;20101;-47
2022/03/28 11:51:28;;;;;;;10.73;7.80;;;13.30;98.20;;;;;;5072752;28;20134;-45
2022/03/28 11:53:56;;;;;;;12.15;8.35;;;13.60;98.70;;;;;;5091039;28;20093;-46
2022/03/28 11:58:14;;;;;;;16.13;8.20;;;13.70;97.60;;;;;;5072622;28;20547;-45
2022/03/28 11:59:20;;;;;;;11.20;8.23;;;14.10;96.50;;;;;;5091078;28;20060;-46
2022/03/28 12:01:48;;;;;;;12.45;8.63;;;13.80;96.90;;;;;;5091722;28;20059;-46
2022/03/28 12:04:17;;;;;;;13.18;8.98;;;13.80;96.70;;;;;;5091202;28;20032;-45
2022/03/28 12:06:43;;;;;;;14.35;8.68;;;13.80;96.10;;;;;;5090746;28;20048;-46
2022/03/28 12:09:15;;;;;;;12.52;8.73;;;13.60;95.20;;;;;;5091042;28;20047;-51
2022/03/28 12:11:47;;;;;;;15.68;8.70;;;13.30;94.70;;;;;;5090318;28;20044;-47
2022/03/28 12:14:13;;;;;;;15.65;9.30;;;13.20;95.40;;;;;;5090967;28;20047;-50
2022/03/28 12:16:49;;;;;;;14.65;9.57;;;13.00;95.80;;;;;;5090493;28;20477;-47
2022/03/28 12:19:26;;;;;;;14.95;9.57;;;12.70;95.60;;;;;;5072605;28;20040;-51
2022/03/28 12:21:53;;;;;;;15.32;9.60;;;13.90;96.80;;;;;;5090393;28;20125;-43
2022/03/28 12:24:20;;;;;;;11.55;8.90;;;12.60;96.70;;;;;;5090780;28;20039;-46
2022/03/28 12:26:48;;;;;;;18.58;9.82;;;12.40;97.10;;;;;;5072496;28;20055;-46
2022/03/28 12:29:14;;;;;;;15.18;10.05;;;12.30;97.10;;;;;;5090091;28;20043;-48
2022/03/28 12:31:41;;;;;;;17.55;9.32;;;12.30;97.20;;;;;;5090318;28;20056;-48
2022/03/28 12:34:08;;;;;;;17.35;10.05;;;12.10;97.10;;;;;;5090498;28;20632;-46
2022/03/28 12:36:34;;;;;;;19.00;10.55;;;12.10;97.50;;;;;;5089971;28;20043;-49
2022/03/28 12:39:10;;;;;;;15.15;10.48;;;12.30;97.50;;;;;;5089683;28;20130;-46
2022/03/28 12:41:45;;;;;;;19.70;11.27;;;12.50;97.40;;;;;;5090277;28;20039;-47
2022/03/28 12:44:16;;;;;;;18.67;10.70;;;12.60;97.40;;;;;;5091084;28;20067;-46
2022/03/28 12:46:42;;;;;;;19.83;12.65;;;12.70;97.30;;;;;;5091260;28;20125;-48
2022/03/28 12:49:23;;;;;;;18.25;10.77;;;12.80;97.10;;;;;;5091286;28;20122;-44